sensor_id;sensor_type;location;lat;lon;timestamp;temperature;humidity
60495;DHT22;46342;49.046;11.920;2024-03-29T00:01:49;7.00;56.50
60495;DHT22;46342;49.046;11.920;2024-03-29T00:04:14;7.00;56.50
60495;DHT22;46342;49.046;11.920;2024-03-29T00:06:40;7.00;56.50
60495;DHT22;46342;49.046;11.920;2024-03-29T00:09:05;7.00;56.60
60495;DHT22;46342;49.046;11.920;2024-03-29T00:11:31;7.00;56.60
60495;DHT22;46342;49.046;11.920;2024-03-29T00:13:57;7.00;56.60
60495;DHT22;46342;49.046;11.920;2024-03-29T00:16:23;7.00;56.60
60495;DHT22;46342;49.046;11.920;2024-03-29T00:18:51;7.00;56.50
60495;DHT22;46342;49.046;11.920;2024-03-29T00:21:16;7.00;57.10
60495;DHT22;46342;49.046;11.920;2024-03-29T00:23:42;7.00;56.40
60495;DHT22;46342;49.046;11.920;2024-03-29T00:26:09;7.00;56.40
60495;DHT22;46342;49.046;11.920;2024-03-29T00:28:35;7.00;56.50
60495;DHT22;46342;49.046;11.920;2024-03-29T00:31:00;6.90;56.40
60495;DHT22;46342;49.046;11.920;2024-03-29T00:33:26;6.90;56.40
60495;DHT22;46342;49.046;11.920;2024-03-29T00:35:51;6.90;56.50
60495;DHT22;46342;49.046;11.920;2024-03-29T00:38:17;6.90;56.50
60495;DHT22;46342;49.046;11.920;2024-03-29T00:40:42;6.90;56.50
60495;DHT22;46342;49.046;11.920;2024-03-29T00:43:08;6.90;56.60
60495;DHT22;46342;49.046;11.920;2024-03-29T00:45:33;6.90;56.60
60495;DHT22;46342;49.046;11.920;2024-03-29T00:47:59;7.00;56.70
60495;DHT22;46342;49.046;11.920;2024-03-29T00:50:24;6.90;56.70
60495;DHT22;46342;49.046;11.920;2024-03-29T00:52:50;6.80;56.60
60495;DHT22;46342;49.046;11.920;2024-03-29T00:55:16;6.80;56.70
60495;DHT22;46342;49.046;11.920;2024-03-29T00:57:42;7.00;56.80
60495;DHT22;46342;49.046;11.920;2024-03-29T01:00:08;6.80;56.80
60495;DHT22;46342;49.046;11.920;2024-03-29T01:02:35;6.80;56.80
60495;DHT22;46342;49.046;11.920;2024-03-29T01:05:01;6.80;56.90
60495;DHT22;46342;49.046;11.920;2024-03-29T01:07:27;6.80;56.90
60495;DHT22;46342;49.046;11.920;2024-03-29T01:09:52;6.80;56.90
60495;DHT22;46342;49.046;11.920;2024-03-29T01:12:18;6.80;56.90
60495;DHT22;46342;49.046;11.920;2024-03-29T01:14:45;6.80;57.00
60495;DHT22;46342;49.046;11.920;2024-03-29T01:17:11;6.80;57.00
60495;DHT22;46342;49.046;11.920;2024-03-29T01:19:36;6.70;57.00
60495;DHT22;46342;49.046;11.920;2024-03-29T01:22:03;6.80;57.00
60495;DHT22;46342;49.046;11.920;2024-03-29T01:24:29;6.80;57.60
60495;DHT22;46342;49.046;11.920;2024-03-29T01:26:55;6.70;57.00
60495;DHT22;46342;49.046;11.920;2024-03-29T01:29:20;6.70;57.00
60495;DHT22;46342;49.046;11.920;2024-03-29T01:31:46;6.80;57.00
60495;DHT22;46342;49.046;11.920;2024-03-29T01:34:11;6.70;57.00
60495;DHT22;46342;49.046;11.920;2024-03-29T01:36:37;6.70;57.00
60495;DHT22;46342;49.046;11.920;2024-03-29T01:39:03;6.70;57.00
60495;DHT22;46342;49.046;11.920;2024-03-29T01:41:29;6.60;56.90
60495;DHT22;46342;49.046;11.920;2024-03-29T01:43:55;6.60;56.90
60495;DHT22;46342;49.046;11.920;2024-03-29T01:46:23;6.60;56.90
60495;DHT22;46342;49.046;11.920;2024-03-29T01:48:52;6.60;57.00
60495;DHT22;46342;49.046;11.920;2024-03-29T01:51:20;6.60;57.10
60495;DHT22;46342;49.046;11.920;2024-03-29T01:53:47;6.50;57.00
60495;DHT22;46342;49.046;11.920;2024-03-29T01:56:15;6.50;57.00
60495;DHT22;46342;49.046;11.920;2024-03-29T01:58:41;6.50;57.10
60495;DHT22;46342;49.046;11.920;2024-03-29T02:01:08;6.50;57.10
60495;DHT22;46342;49.046;11.920;2024-03-29T02:03:33;6.50;57.10
60495;DHT22;46342;49.046;11.920;2024-03-29T02:05:59;6.50;57.20
60495;DHT22;46342;49.046;11.920;2024-03-29T02:08:27;6.50;57.20
60495;DHT22;46342;49.046;11.920;2024-03-29T02:10:53;6.50;57.20
60495;DHT22;46342;49.046;11.920;2024-03-29T02:13:19;6.40;57.10
60495;DHT22;46342;49.046;11.920;2024-03-29T02:15:44;6.40;57.10
60495;DHT22;46342;49.046;11.920;2024-03-29T02:18:10;6.40;57.20
60495;DHT22;46342;49.046;11.920;2024-03-29T02:20:36;6.40;57.20
60495;DHT22;46342;49.046;11.920;2024-03-29T02:23:07;6.40;57.30
60495;DHT22;46342;49.046;11.920;2024-03-29T02:25:35;6.40;57.50
60495;DHT22;46342;49.046;11.920;2024-03-29T02:28:01;6.40;57.40
60495;DHT22;46342;49.046;11.920;2024-03-29T02:30:28;6.40;57.40
60495;DHT22;46342;49.046;11.920;2024-03-29T02:32:56;6.40;57.50
60495;DHT22;46342;49.046;11.920;2024-03-29T02:35:21;6.40;57.60
60495;DHT22;46342;49.046;11.920;2024-03-29T02:37:47;6.40;57.60
60495;DHT22;46342;49.046;11.920;2024-03-29T02:40:12;6.40;57.70
60495;DHT22;46342;49.046;11.920;2024-03-29T02:42:38;6.40;57.70
60495;DHT22;46342;49.046;11.920;2024-03-29T02:45:04;6.40;57.70
60495;DHT22;46342;49.046;11.920;2024-03-29T02:47:30;6.40;57.80
60495;DHT22;46342;49.046;11.920;2024-03-29T02:53:23;6.40;58.50
60495;DHT22;46342;49.046;11.920;2024-03-29T02:55:49;6.40;58.10
60495;DHT22;46342;49.046;11.920;2024-03-29T02:58:15;6.40;57.70
60495;DHT22;46342;49.046;11.920;2024-03-29T03:00:40;6.40;57.70
60495;DHT22;46342;49.046;11.920;2024-03-29T03:03:06;6.40;57.80
60495;DHT22;46342;49.046;11.920;2024-03-29T03:05:31;6.40;57.80
60495;DHT22;46342;49.046;11.920;2024-03-29T03:07:58;6.40;57.80
60495;DHT22;46342;49.046;11.920;2024-03-29T03:10:47;6.50;57.90
60495;DHT22;46342;49.046;11.920;2024-03-29T03:13:25;6.50;58.30
60495;DHT22;46342;49.046;11.920;2024-03-29T03:15:51;6.50;57.90
60495;DHT22;46342;49.046;11.920;2024-03-29T03:18:16;6.50;57.90
60495;DHT22;46342;49.046;11.920;2024-03-29T03:20:42;6.50;57.90
60495;DHT22;46342;49.046;11.920;2024-03-29T03:23:07;6.50;57.90
60495;DHT22;46342;49.046;11.920;2024-03-29T03:25:33;6.50;58.00
60495;DHT22;46342;49.046;11.920;2024-03-29T03:27:58;6.50;57.90
60495;DHT22;46342;49.046;11.920;2024-03-29T03:30:24;6.50;57.90
60495;DHT22;46342;49.046;11.920;2024-03-29T03:32:49;6.50;57.90
60495;DHT22;46342;49.046;11.920;2024-03-29T03:35:15;6.50;57.90
60495;DHT22;46342;49.046;11.920;2024-03-29T03:37:40;6.50;57.90
60495;DHT22;46342;49.046;11.920;2024-03-29T03:40:07;6.50;57.90
60495;DHT22;46342;49.046;11.920;2024-03-29T03:42:33;6.50;57.90
60495;DHT22;46342;49.046;11.920;2024-03-29T03:44:58;6.50;57.90
60495;DHT22;46342;49.046;11.920;2024-03-29T03:47:24;6.50;57.90
60495;DHT22;46342;49.046;11.920;2024-03-29T03:49:49;6.50;57.90
60495;DHT22;46342;49.046;11.920;2024-03-29T03:52:15;6.50;57.90
60495;DHT22;46342;49.046;11.920;2024-03-29T03:54:40;6.50;57.90
60495;DHT22;46342;49.046;11.920;2024-03-29T03:57:06;6.50;57.90
60495;DHT22;46342;49.046;11.920;2024-03-29T03:59:31;6.50;57.90
60495;DHT22;46342;49.046;11.920;2024-03-29T04:01:57;6.50;57.90
60495;DHT22;46342;49.046;11.920;2024-03-29T04:04:23;6.50;57.90
60495;DHT22;46342;49.046;11.920;2024-03-29T04:06:48;6.50;57.80
60495;DHT22;46342;49.046;11.920;2024-03-29T04:09:14;6.50;57.90
60495;DHT22;46342;49.046;11.920;2024-03-29T04:11:41;6.50;57.90
60495;DHT22;46342;49.046;11.920;2024-03-29T04:14:07;6.40;57.80
60495;DHT22;46342;49.046;11.920;2024-03-29T04:16:33;6.40;57.80
60495;DHT22;46342;49.046;11.920;2024-03-29T04:18:58;6.40;57.80
60495;DHT22;46342;49.046;11.920;2024-03-29T04:21:24;6.40;57.70
60495;DHT22;46342;49.046;11.920;2024-03-29T04:23:49;6.40;57.70
60495;DHT22;46342;49.046;11.920;2024-03-29T04:26:15;6.40;57.70
60495;DHT22;46342;49.046;11.920;2024-03-29T04:28:40;6.30;57.60
60495;DHT22;46342;49.046;11.920;2024-03-29T04:31:06;6.30;57.70
60495;DHT22;46342;49.046;11.920;2024-03-29T04:33:31;6.30;57.60
60495;DHT22;46342;49.046;11.920;2024-03-29T04:36:02;6.30;57.70
60495;DHT22;46342;49.046;11.920;2024-03-29T04:38:28;6.30;57.90
60495;DHT22;46342;49.046;11.920;2024-03-29T04:40:55;6.30;57.70
60495;DHT22;46342;49.046;11.920;2024-03-29T04:43:25;6.20;57.70
60495;DHT22;46342;49.046;11.920;2024-03-29T04:46:08;6.20;58.00
60495;DHT22;46342;49.046;11.920;2024-03-29T04:48:35;6.20;58.20
60495;DHT22;46342;49.046;11.920;2024-03-29T04:51:01;6.20;57.70
60495;DHT22;46342;49.046;11.920;2024-03-29T04:53:26;6.20;57.70
60495;DHT22;46342;49.046;11.920;2024-03-29T04:55:56;6.20;57.80
60495;DHT22;46342;49.046;11.920;2024-03-29T04:58:22;6.10;58.00
60495;DHT22;46342;49.046;11.920;2024-03-29T05:00:49;6.10;57.80
60495;DHT22;46342;49.046;11.920;2024-03-29T05:03:16;6.10;57.90
60495;DHT22;46342;49.046;11.920;2024-03-29T05:05:42;6.10;57.90
60495;DHT22;46342;49.046;11.920;2024-03-29T05:08:07;6.10;57.80
60495;DHT22;46342;49.046;11.920;2024-03-29T05:10:33;6.10;57.90
60495;DHT22;46342;49.046;11.920;2024-03-29T05:13:00;6.10;58.10
60495;DHT22;46342;49.046;11.920;2024-03-29T05:15:26;6.10;58.10
60495;DHT22;46342;49.046;11.920;2024-03-29T05:17:52;6.10;58.10
60495;DHT22;46342;49.046;11.920;2024-03-29T05:20:18;6.10;58.30
60495;DHT22;46342;49.046;11.920;2024-03-29T05:22:44;6.10;58.90
60495;DHT22;46342;49.046;11.920;2024-03-29T05:25:09;6.10;58.20
60495;DHT22;46342;49.046;11.920;2024-03-29T05:27:35;6.10;58.80
60495;DHT22;46342;49.046;11.920;2024-03-29T05:30:01;6.10;58.30
60495;DHT22;46342;49.046;11.920;2024-03-29T05:32:28;6.10;58.40
60495;DHT22;46342;49.046;11.920;2024-03-29T05:34:54;6.10;58.40
60495;DHT22;46342;49.046;11.920;2024-03-29T05:37:20;6.20;58.60
60495;DHT22;46342;49.046;11.920;2024-03-29T05:39:45;6.20;58.60
60495;DHT22;46342;49.046;11.920;2024-03-29T05:42:12;6.20;58.60
60495;DHT22;46342;49.046;11.920;2024-03-29T05:44:38;6.30;58.80
60495;DHT22;46342;49.046;11.920;2024-03-29T05:47:03;6.30;58.70
60495;DHT22;46342;49.046;11.920;2024-03-29T05:49:32;6.30;58.70
60495;DHT22;46342;49.046;11.920;2024-03-29T05:51:58;6.40;58.70
60495;DHT22;46342;49.046;11.920;2024-03-29T05:54:24;6.40;58.80
60495;DHT22;46342;49.046;11.920;2024-03-29T05:56:50;6.40;58.70
60495;DHT22;46342;49.046;11.920;2024-03-29T05:59:15;6.50;58.80
60495;DHT22;46342;49.046;11.920;2024-03-29T06:01:41;6.50;58.80
60495;DHT22;46342;49.046;11.920;2024-03-29T06:04:07;6.50;58.70
60495;DHT22;46342;49.046;11.920;2024-03-29T06:06:41;6.50;58.70
60495;DHT22;46342;49.046;11.920;2024-03-29T06:09:06;6.60;59.30
60495;DHT22;46342;49.046;11.920;2024-03-29T06:11:32;6.60;58.60
60495;DHT22;46342;49.046;11.920;2024-03-29T06:13:57;6.60;58.50
60495;DHT22;46342;49.046;11.920;2024-03-29T06:16:25;6.60;58.40
60495;DHT22;46342;49.046;11.920;2024-03-29T06:19:09;6.60;58.60
60495;DHT22;46342;49.046;11.920;2024-03-29T06:21:35;6.60;58.60
60495;DHT22;46342;49.046;11.920;2024-03-29T06:24:05;6.70;58.80
60495;DHT22;46342;49.046;11.920;2024-03-29T06:26:31;6.70;58.90
60495;DHT22;46342;49.046;11.920;2024-03-29T06:28:57;6.80;58.90
60495;DHT22;46342;49.046;11.920;2024-03-29T06:31:22;6.80;59.00
60495;DHT22;46342;49.046;11.920;2024-03-29T06:33:48;6.90;59.10
60495;DHT22;46342;49.046;11.920;2024-03-29T06:36:13;6.90;59.00
60495;DHT22;46342;49.046;11.920;2024-03-29T06:38:39;6.90;58.90
60495;DHT22;46342;49.046;11.920;2024-03-29T06:41:04;7.00;58.90
60495;DHT22;46342;49.046;11.920;2024-03-29T06:43:30;7.00;59.00
60495;DHT22;46342;49.046;11.920;2024-03-29T06:45:56;7.10;59.10
60495;DHT22;46342;49.046;11.920;2024-03-29T06:48:23;7.20;59.20
60495;DHT22;46342;49.046;11.920;2024-03-29T06:50:48;7.20;59.10
60495;DHT22;46342;49.046;11.920;2024-03-29T06:53:15;7.20;59.00
60495;DHT22;46342;49.046;11.920;2024-03-29T06:55:41;7.30;59.10
60495;DHT22;46342;49.046;11.920;2024-03-29T06:58:07;7.40;59.00
60495;DHT22;46342;49.046;11.920;2024-03-29T07:00:32;7.40;59.00
60495;DHT22;46342;49.046;11.920;2024-03-29T07:02:58;7.50;59.00
60495;DHT22;46342;49.046;11.920;2024-03-29T07:05:24;7.50;58.90
60495;DHT22;46342;49.046;11.920;2024-03-29T07:07:49;7.50;58.90
60495;DHT22;46342;49.046;11.920;2024-03-29T07:10:15;7.60;59.00
60495;DHT22;46342;49.046;11.920;2024-03-29T07:12:40;7.60;58.90
60495;DHT22;46342;49.046;11.920;2024-03-29T07:15:06;7.70;58.90
60495;DHT22;46342;49.046;11.920;2024-03-29T07:17:32;7.70;59.00
60495;DHT22;46342;49.046;11.920;2024-03-29T07:19:57;7.80;59.00
60495;DHT22;46342;49.046;11.920;2024-03-29T07:22:23;7.80;59.00
60495;DHT22;46342;49.046;11.920;2024-03-29T07:24:48;7.90;59.10
60495;DHT22;46342;49.046;11.920;2024-03-29T07:27:14;7.90;59.00
60495;DHT22;46342;49.046;11.920;2024-03-29T07:29:42;8.00;59.10
60495;DHT22;46342;49.046;11.920;2024-03-29T07:32:09;8.00;59.30
60495;DHT22;46342;49.046;11.920;2024-03-29T07:34:35;8.10;58.80
60495;DHT22;46342;49.046;11.920;2024-03-29T07:37:00;8.10;58.80
60495;DHT22;46342;49.046;11.920;2024-03-29T07:39:26;8.10;58.80
60495;DHT22;46342;49.046;11.920;2024-03-29T07:41:52;8.20;58.90
60495;DHT22;46342;49.046;11.920;2024-03-29T07:44:17;8.20;58.90
60495;DHT22;46342;49.046;11.920;2024-03-29T07:46:43;8.30;59.00
60495;DHT22;46342;49.046;11.920;2024-03-29T07:49:11;8.30;59.00
60495;DHT22;46342;49.046;11.920;2024-03-29T07:51:36;8.40;59.20
60495;DHT22;46342;49.046;11.920;2024-03-29T07:54:02;8.50;59.20
60495;DHT22;46342;49.046;11.920;2024-03-29T07:56:28;8.50;59.20
60495;DHT22;46342;49.046;11.920;2024-03-29T07:58:53;8.60;59.50
60495;DHT22;46342;49.046;11.920;2024-03-29T08:01:23;8.70;59.60
60495;DHT22;46342;49.046;11.920;2024-03-29T08:03:52;9.00;59.80
60495;DHT22;46342;49.046;11.920;2024-03-29T08:06:19;8.90;59.60
60495;DHT22;46342;49.046;11.920;2024-03-29T08:08:45;9.00;60.00
60495;DHT22;46342;49.046;11.920;2024-03-29T08:11:11;9.10;59.40
60495;DHT22;46342;49.046;11.920;2024-03-29T08:13:38;9.20;59.60
60495;DHT22;46342;49.046;11.920;2024-03-29T08:16:04;9.30;59.80
60495;DHT22;46342;49.046;11.920;2024-03-29T08:18:31;9.40;60.20
60495;DHT22;46342;49.046;11.920;2024-03-29T08:20:56;9.50;61.40
60495;DHT22;46342;49.046;11.920;2024-03-29T08:23:23;9.70;60.50
60495;DHT22;46342;49.046;11.920;2024-03-29T08:25:48;9.90;60.50
60495;DHT22;46342;49.046;11.920;2024-03-29T08:28:15;10.00;59.50
60495;DHT22;46342;49.046;11.920;2024-03-29T08:30:41;10.20;59.40
60495;DHT22;46342;49.046;11.920;2024-03-29T08:33:06;10.40;59.50
60495;DHT22;46342;49.046;11.920;2024-03-29T08:35:33;10.50;59.40
60495;DHT22;46342;49.046;11.920;2024-03-29T08:37:59;10.70;59.30
60495;DHT22;46342;49.046;11.920;2024-03-29T08:40:27;10.80;58.90
60495;DHT22;46342;49.046;11.920;2024-03-29T08:42:54;11.00;58.80
60495;DHT22;46342;49.046;11.920;2024-03-29T08:45:20;11.10;58.80
60495;DHT22;46342;49.046;11.920;2024-03-29T08:47:46;11.20;58.70
60495;DHT22;46342;49.046;11.920;2024-03-29T08:50:12;11.40;58.80
60495;DHT22;46342;49.046;11.920;2024-03-29T08:52:39;11.40;58.70
60495;DHT22;46342;49.046;11.920;2024-03-29T08:55:08;11.60;58.60
60495;DHT22;46342;49.046;11.920;2024-03-29T08:57:34;11.70;58.40
60495;DHT22;46342;49.046;11.920;2024-03-29T09:00:00;11.80;58.10
60495;DHT22;46342;49.046;11.920;2024-03-29T09:02:26;11.90;58.00
60495;DHT22;46342;49.046;11.920;2024-03-29T09:04:51;12.00;57.90
60495;DHT22;46342;49.046;11.920;2024-03-29T09:07:17;12.10;57.70
60495;DHT22;46342;49.046;11.920;2024-03-29T09:09:43;12.20;57.60
60495;DHT22;46342;49.046;11.920;2024-03-29T09:12:09;12.30;57.50
60495;DHT22;46342;49.046;11.920;2024-03-29T09:14:34;12.30;57.40
60495;DHT22;46342;49.046;11.920;2024-03-29T09:17:00;12.40;57.30
60495;DHT22;46342;49.046;11.920;2024-03-29T09:19:27;12.40;57.20
60495;DHT22;46342;49.046;11.920;2024-03-29T09:21:52;12.50;57.10
60495;DHT22;46342;49.046;11.920;2024-03-29T09:24:18;12.50;57.00
60495;DHT22;46342;49.046;11.920;2024-03-29T09:26:44;12.50;56.90
60495;DHT22;46342;49.046;11.920;2024-03-29T09:29:10;12.60;56.90
60495;DHT22;46342;49.046;11.920;2024-03-29T09:31:38;12.60;56.70
60495;DHT22;46342;49.046;11.920;2024-03-29T09:34:04;12.70;56.60
60495;DHT22;46342;49.046;11.920;2024-03-29T09:36:29;12.70;56.60
60495;DHT22;46342;49.046;11.920;2024-03-29T09:38:55;12.70;56.60
60495;DHT22;46342;49.046;11.920;2024-03-29T09:41:21;12.80;56.60
60495;DHT22;46342;49.046;11.920;2024-03-29T09:43:48;12.80;56.40
60495;DHT22;46342;49.046;11.920;2024-03-29T09:46:15;12.80;56.10
60495;DHT22;46342;49.046;11.920;2024-03-29T09:48:42;12.90;56.50
60495;DHT22;46342;49.046;11.920;2024-03-29T09:51:09;12.90;56.30
60495;DHT22;46342;49.046;11.920;2024-03-29T09:53:36;12.90;56.20
60495;DHT22;46342;49.046;11.920;2024-03-29T09:56:06;13.00;56.30
60495;DHT22;46342;49.046;11.920;2024-03-29T09:58:35;13.00;56.20
60495;DHT22;46342;49.046;11.920;2024-03-29T10:01:03;13.10;56.40
60495;DHT22;46342;49.046;11.920;2024-03-29T10:03:30;13.10;56.50
60495;DHT22;46342;49.046;11.920;2024-03-29T10:05:59;13.20;56.70
60495;DHT22;46342;49.046;11.920;2024-03-29T10:08:29;13.30;56.40
60495;DHT22;46342;49.046;11.920;2024-03-29T10:10:56;13.40;56.40
60495;DHT22;46342;49.046;11.920;2024-03-29T10:13:22;13.40;57.10
60495;DHT22;46342;49.046;11.920;2024-03-29T10:15:55;13.50;56.50
60495;DHT22;46342;49.046;11.920;2024-03-29T10:18:26;13.60;56.20
60495;DHT22;46342;49.046;11.920;2024-03-29T10:21:03;13.60;56.10
60495;DHT22;46342;49.046;11.920;2024-03-29T10:23:29;13.70;56.10
60495;DHT22;46342;49.046;11.920;2024-03-29T10:25:55;13.80;56.50
60495;DHT22;46342;49.046;11.920;2024-03-29T10:28:21;13.80;56.40
60495;DHT22;46342;49.046;11.920;2024-03-29T10:30:48;13.90;56.40
60495;DHT22;46342;49.046;11.920;2024-03-29T10:33:14;14.00;56.30
60495;DHT22;46342;49.046;11.920;2024-03-29T10:35:46;14.10;56.60
60495;DHT22;46342;49.046;11.920;2024-03-29T10:38:12;14.10;56.60
60495;DHT22;46342;49.046;11.920;2024-03-29T10:40:38;14.30;57.00
60495;DHT22;46342;49.046;11.920;2024-03-29T10:43:08;14.40;57.10
60495;DHT22;46342;49.046;11.920;2024-03-29T10:45:38;14.50;57.10
60495;DHT22;46342;49.046;11.920;2024-03-29T10:48:05;14.70;56.90
60495;DHT22;46342;49.046;11.920;2024-03-29T10:50:38;14.80;56.70
60495;DHT22;46342;49.046;11.920;2024-03-29T10:53:06;14.90;56.30
60495;DHT22;46342;49.046;11.920;2024-03-29T10:55:36;15.10;56.30
60495;DHT22;46342;49.046;11.920;2024-03-29T10:58:03;15.20;56.10
60495;DHT22;46342;49.046;11.920;2024-03-29T11:00:33;15.30;56.30
60495;DHT22;46342;49.046;11.920;2024-03-29T11:03:19;15.40;56.10
60495;DHT22;46342;49.046;11.920;2024-03-29T11:05:48;15.60;55.90
60495;DHT22;46342;49.046;11.920;2024-03-29T11:08:19;15.70;56.30
60495;DHT22;46342;49.046;11.920;2024-03-29T11:10:47;15.80;56.00
60495;DHT22;46342;49.046;11.920;2024-03-29T11:15:55;16.10;55.40
60495;DHT22;46342;49.046;11.920;2024-03-29T11:18:21;16.20;56.30
60495;DHT22;46342;49.046;11.920;2024-03-29T11:20:47;16.40;56.40
60495;DHT22;46342;49.046;11.920;2024-03-29T11:23:21;16.50;56.20
60495;DHT22;46342;49.046;11.920;2024-03-29T11:25:51;16.70;55.70
60495;DHT22;46342;49.046;11.920;2024-03-29T11:28:30;16.80;55.00
60495;DHT22;46342;49.046;11.920;2024-03-29T11:31:06;17.00;54.70
60495;DHT22;46342;49.046;11.920;2024-03-29T11:33:34;17.10;54.90
60495;DHT22;46342;49.046;11.920;2024-03-29T11:36:28;17.20;55.50
60495;DHT22;46342;49.046;11.920;2024-03-29T11:38:53;17.40;54.80
60495;DHT22;46342;49.046;11.920;2024-03-29T11:41:23;17.50;55.40
60495;DHT22;46342;49.046;11.920;2024-03-29T11:43:50;17.60;54.70
60495;DHT22;46342;49.046;11.920;2024-03-29T11:46:16;17.80;54.90
60495;DHT22;46342;49.046;11.920;2024-03-29T11:48:42;17.90;54.90
60495;DHT22;46342;49.046;11.920;2024-03-29T11:51:11;17.90;54.70
60495;DHT22;46342;49.046;11.920;2024-03-29T11:53:39;18.00;54.40
60495;DHT22;46342;49.046;11.920;2024-03-29T11:56:06;18.10;54.40
60495;DHT22;46342;49.046;11.920;2024-03-29T11:58:33;18.20;54.00
60495;DHT22;46342;49.046;11.920;2024-03-29T12:01:00;18.30;53.70
60495;DHT22;46342;49.046;11.920;2024-03-29T12:03:27;18.30;53.50
60495;DHT22;46342;49.046;11.920;2024-03-29T12:05:54;18.30;53.20
60495;DHT22;46342;49.046;11.920;2024-03-29T12:08:34;18.40;53.20
60495;DHT22;46342;49.046;11.920;2024-03-29T12:11:01;18.40;53.20
60495;DHT22;46342;49.046;11.920;2024-03-29T12:13:27;18.50;53.10
60495;DHT22;46342;49.046;11.920;2024-03-29T12:15:53;18.50;52.90
60495;DHT22;46342;49.046;11.920;2024-03-29T12:18:20;18.60;52.90
60495;DHT22;46342;49.046;11.920;2024-03-29T12:20:47;18.60;52.80
60495;DHT22;46342;49.046;11.920;2024-03-29T12:23:19;18.70;52.60
60495;DHT22;46342;49.046;11.920;2024-03-29T12:25:45;18.80;52.50
60495;DHT22;46342;49.046;11.920;2024-03-29T12:28:12;18.80;52.30
60495;DHT22;46342;49.046;11.920;2024-03-29T12:30:40;18.90;52.40
60495;DHT22;46342;49.046;11.920;2024-03-29T12:33:14;19.00;52.30
60495;DHT22;46342;49.046;11.920;2024-03-29T12:35:43;19.10;52.70
60495;DHT22;46342;49.046;11.920;2024-03-29T12:38:12;19.10;52.00
60495;DHT22;46342;49.046;11.920;2024-03-29T12:40:38;19.20;52.00
60495;DHT22;46342;49.046;11.920;2024-03-29T12:43:06;19.30;52.30
60495;DHT22;46342;49.046;11.920;2024-03-29T12:45:36;19.40;53.10
60495;DHT22;46342;49.046;11.920;2024-03-29T12:48:02;19.50;52.50
60495;DHT22;46342;49.046;11.920;2024-03-29T12:50:34;19.60;52.70
60495;DHT22;46342;49.046;11.920;2024-03-29T12:53:01;19.70;51.60
60495;DHT22;46342;49.046;11.920;2024-03-29T12:55:27;19.80;52.00
60495;DHT22;46342;49.046;11.920;2024-03-29T12:57:57;20.00;51.40
60495;DHT22;46342;49.046;11.920;2024-03-29T13:00:25;20.00;52.00
60495;DHT22;46342;49.046;11.920;2024-03-29T13:02:51;20.00;51.80
60495;DHT22;46342;49.046;11.920;2024-03-29T13:05:17;20.10;51.80
60495;DHT22;46342;49.046;11.920;2024-03-29T13:07:43;20.20;51.80
60495;DHT22;46342;49.046;11.920;2024-03-29T13:10:09;20.30;52.00
60495;DHT22;46342;49.046;11.920;2024-03-29T13:12:45;20.40;52.00
60495;DHT22;46342;49.046;11.920;2024-03-29T13:15:22;20.50;52.20
60495;DHT22;46342;49.046;11.920;2024-03-29T13:17:51;20.70;51.40
60495;DHT22;46342;49.046;11.920;2024-03-29T13:20:17;20.70;51.80
60495;DHT22;46342;49.046;11.920;2024-03-29T13:22:44;20.80;51.60
60495;DHT22;46342;49.046;11.920;2024-03-29T13:25:17;20.90;51.40
60495;DHT22;46342;49.046;11.920;2024-03-29T13:27:44;21.10;50.90
60495;DHT22;46342;49.046;11.920;2024-03-29T13:30:11;21.10;51.00
60495;DHT22;46342;49.046;11.920;2024-03-29T13:32:43;21.20;50.40
60495;DHT22;46342;49.046;11.920;2024-03-29T13:35:10;21.20;49.80
60495;DHT22;46342;49.046;11.920;2024-03-29T13:37:43;21.20;50.30
60495;DHT22;46342;49.046;11.920;2024-03-29T13:40:09;21.30;49.40
60495;DHT22;46342;49.046;11.920;2024-03-29T13:42:36;21.30;50.00
60495;DHT22;46342;49.046;11.920;2024-03-29T13:45:02;21.30;50.20
60495;DHT22;46342;49.046;11.920;2024-03-29T13:47:27;21.40;50.30
60495;DHT22;46342;49.046;11.920;2024-03-29T13:49:53;21.50;50.20
60495;DHT22;46342;49.046;11.920;2024-03-29T13:52:20;21.50;49.90
60495;DHT22;46342;49.046;11.920;2024-03-29T13:54:46;21.60;49.90
60495;DHT22;46342;49.046;11.920;2024-03-29T13:57:13;21.60;49.80
60495;DHT22;46342;49.046;11.920;2024-03-29T13:59:38;21.70;49.80
60495;DHT22;46342;49.046;11.920;2024-03-29T14:02:04;21.70;50.00
60495;DHT22;46342;49.046;11.920;2024-03-29T14:04:30;21.70;49.10
60495;DHT22;46342;49.046;11.920;2024-03-29T14:06:56;21.80;49.00
60495;DHT22;46342;49.046;11.920;2024-03-29T14:09:22;21.80;49.00
60495;DHT22;46342;49.046;11.920;2024-03-29T14:11:47;21.80;48.80
60495;DHT22;46342;49.046;11.920;2024-03-29T14:14:13;21.90;48.90
60495;DHT22;46342;49.046;11.920;2024-03-29T14:16:39;21.90;49.10
60495;DHT22;46342;49.046;11.920;2024-03-29T14:19:04;21.90;48.90
60495;DHT22;46342;49.046;11.920;2024-03-29T14:21:30;22.00;48.80
60495;DHT22;46342;49.046;11.920;2024-03-29T14:23:57;22.00;48.60
60495;DHT22;46342;49.046;11.920;2024-03-29T14:26:23;22.00;48.70
60495;DHT22;46342;49.046;11.920;2024-03-29T14:28:48;22.10;48.80
60495;DHT22;46342;49.046;11.920;2024-03-29T14:31:14;22.10;48.70
60495;DHT22;46342;49.046;11.920;2024-03-29T14:33:39;22.10;48.50
60495;DHT22;46342;49.046;11.920;2024-03-29T14:36:05;22.10;48.40
60495;DHT22;46342;49.046;11.920;2024-03-29T14:38:31;22.10;48.10
60495;DHT22;46342;49.046;11.920;2024-03-29T14:40:56;22.10;48.10
60495;DHT22;46342;49.046;11.920;2024-03-29T14:43:22;22.00;48.10
60495;DHT22;46342;49.046;11.920;2024-03-29T14:45:49;22.00;47.90
60495;DHT22;46342;49.046;11.920;2024-03-29T14:48:16;22.00;47.70
60495;DHT22;46342;49.046;11.920;2024-03-29T14:50:42;21.90;47.60
60495;DHT22;46342;49.046;11.920;2024-03-29T14:53:07;21.90;47.40
60495;DHT22;46342;49.046;11.920;2024-03-29T14:55:33;21.80;48.00
60495;DHT22;46342;49.046;11.920;2024-03-29T14:58:01;21.80;47.40
60495;DHT22;46342;49.046;11.920;2024-03-29T15:00:27;21.80;47.60
60495;DHT22;46342;49.046;11.920;2024-03-29T15:02:53;21.80;48.00
60495;DHT22;46342;49.046;11.920;2024-03-29T15:05:18;21.80;48.00
60495;DHT22;46342;49.046;11.920;2024-03-29T15:07:44;21.80;48.10
60495;DHT22;46342;49.046;11.920;2024-03-29T15:10:09;21.80;48.00
60495;DHT22;46342;49.046;11.920;2024-03-29T15:12:39;21.90;47.90
60495;DHT22;46342;49.046;11.920;2024-03-29T15:15:06;21.90;47.90
60495;DHT22;46342;49.046;11.920;2024-03-29T15:17:32;21.90;48.00
60495;DHT22;46342;49.046;11.920;2024-03-29T15:19:58;22.00;48.00
60495;DHT22;46342;49.046;11.920;2024-03-29T15:22:23;22.00;47.80
60495;DHT22;46342;49.046;11.920;2024-03-29T15:24:49;22.00;47.90
60495;DHT22;46342;49.046;11.920;2024-03-29T15:27:15;22.00;47.80
60495;DHT22;46342;49.046;11.920;2024-03-29T15:30:16;22.00;47.70